Time;durP1;ratioP1;P1;durP2;ratioP2;P2;SDS_P1;SDS_P2;PMS_P1;PMS_P2;Temp;Humidity;BMP_temperature;BMP_pressure;BME280_temperature;BME280_humidity;BME280_pressure;Samples;Min_cycle;Max_cycle;Signal;HPM_P1;HPM_P2
2022/02/11 00:08:20;;;;;;;11.23;5.68;;;;;;;4.87;96.77;99086.25;5082540;28;20009;-70
2022/02/11 00:10:45;;;;;;;13.93;6.00;;;;;;;4.89;96.81;99088.88;5082691;28;20021;-70
2022/02/11 00:13:11;;;;;;;15.63;6.60;;;;;;;4.93;96.54;99088.94;5082703;28;20028;-70
2022/02/11 00:15:41;;;;;;;14.93;6.28;;;;;;;4.91;96.85;99082.84;5082641;28;20080;-70
2022/02/11 00:18:09;;;;;;;14.90;6.65;;;;;;;4.92;96.91;99083.69;5082528;28;20031;-70
2022/02/11 00:20:35;;;;;;;14.60;6.85;;;;;;;4.90;97.30;99093.25;5082819;28;20076;-70
2022/02/11 00:23:01;;;;;;;11.55;4.95;;;;;;;4.88;97.99;99087.13;5082578;28;20346;-70
2022/02/11 00:25:26;;;;;;;12.07;6.20;;;;;;;4.86;98.08;99086.25;5082678;28;20020;-70
2022/02/11 00:35:46;;;;;;;12.65;5.35;;;;;;;4.88;98.46;99081.94;5082749;28;20024;-70
2022/02/11 00:38:21;;;;;;;12.80;5.50;;;;;;;4.85;98.95;99081.88;5081388;28;20247;-70
2022/02/11 00:46:35;;;;;;;17.50;6.53;;;;;;;4.96;98.01;99085.47;5082391;28;20020;-70
2022/02/11 01:02:24;;;;;;;17.08;6.55;;;;;;;4.91;99.06;99115.88;5085752;28;20024;-70
2022/02/11 01:04:49;;;;;;;18.70;5.82;;;;;;;4.89;99.87;99110.63;5084207;28;20300;-70
2022/02/11 01:07:15;;;;;;;16.85;7.20;;;;;;;4.92;99.36;99121.09;5085715;28;20046;-70
2022/02/11 01:09:42;;;;;;;16.05;7.28;;;;;;;4.92;99.33;99120.22;5085800;28;20036;-70
2022/02/11 01:12:10;;;;;;;11.00;5.80;;;;;;;5.00;98.80;99131.63;5084859;28;20016;-70
2022/02/11 01:14:42;;;;;;;15.38;6.90;;;;;;;4.95;99.21;99130.69;5085551;28;20028;-70
2022/02/11 01:22:52;;;;;;;11.23;5.40;;;;;;;4.87;98.84;99148.00;5083484;28;20012;-70
2022/02/11 01:57:04;;;;;;;0.30;0.30;;;;;;;4.25;96.58;99212.34;5080457;28;20023;-70
2022/02/11 02:26:19;;;;;;;4.18;0.93;;;;;;;4.19;97.13;99239.19;5084714;28;20028;-69
2022/02/11 02:50:24;;;;;;;0.57;0.57;;;;;;;3.89;97.98;99258.66;5083309;28;20174;-69
2022/02/11 02:58:29;;;;;;;0.80;0.70;;;;;;;3.89;98.11;99261.28;5079556;28;20023;-69
2022/02/11 03:49:57;;;;;;;7.40;1.65;;;;;;;3.90;96.21;99338.53;5082724;28;20027;-69
2022/02/11 04:55:37;;;;;;;2.65;1.52;;;;;;;1.85;97.68;99447.28;5084895;28;20085;-70
2022/02/11 05:00:27;;;;;;;6.78;2.58;;;;;;;1.70;98.06;99462.41;5077761;28;20054;-70
2022/02/11 05:02:56;;;;;;;5.45;2.30;;;;;;;1.66;98.14;99460.59;5085390;28;20020;-70
2022/02/11 05:05:22;;;;;;;6.47;2.05;;;;;;;1.66;98.26;99460.59;5085165;28;20024;-70
2022/02/11 05:07:48;;;;;;;5.15;2.50;;;;;;;1.59;98.54;99463.84;5085201;28;20020;-70
2022/02/11 05:10:13;;;;;;;5.45;2.50;;;;;;;1.59;98.62;99472.47;5084388;28;20177;-70
2022/02/11 05:12:39;;;;;;;12.23;3.20;;;;;;;1.62;99.09;99472.56;5084439;28;20024;-70
2022/02/11 05:15:08;;;;;;;7.40;2.70;;;;;;;1.70;99.14;99483.19;5084773;28;20095;-70
2022/02/11 05:17:35;;;;;;;6.13;2.88;;;;;;;1.82;99.36;99487.03;5082291;28;20024;-70
2022/02/11 05:20:01;;;;;;;5.22;2.45;;;;;;;2.02;99.38;99488.44;5085419;28;20016;-70
2022/02/11 05:22:26;;;;;;;10.48;3.10;;;;;;;2.11;99.47;99483.50;5085102;28;20189;-70
2022/02/11 05:24:51;;;;;;;16.65;4.60;;;;;;;2.24;98.75;99496.00;5084745;28;20083;-70
2022/02/11 05:27:17;;;;;;;10.20;3.20;;;;;;;2.41;98.06;99488.66;5084973;28;20020;-70
2022/02/11 05:29:42;;;;;;;5.13;3.10;;;;;;;2.54;97.52;99495.94;5084483;28;20025;-70
2022/02/11 05:32:08;;;;;;;4.05;2.30;;;;;;;2.58;96.71;99496.84;5084659;28;20097;-70
2022/02/11 05:34:33;;;;;;;14.27;4.03;;;;;;;2.68;96.18;99497.13;5084766;28;20025;-70
2022/02/11 05:36:59;;;;;;;7.43;3.55;;;;;;;2.76;95.61;99505.13;5084297;28;20028;-70
2022/02/11 05:39:24;;;;;;;9.30;2.53;;;;;;;2.73;95.11;99499.84;5085687;28;20028;-70
2022/02/11 05:41:50;;;;;;;7.88;3.53;;;;;;;2.75;95.41;99506.00;5084991;28;20388;-70
2022/02/11 05:44:15;;;;;;;13.10;3.55;;;;;;;2.65;95.63;99504.84;5086258;28;20324;-70
2022/02/11 05:46:40;;;;;;;8.57;3.80;;;;;;;2.65;95.81;99515.25;5086287;28;20033;-70
2022/02/11 05:49:06;;;;;;;7.78;3.05;;;;;;;2.64;96.18;99518.69;5086155;28;20031;-70
2022/02/11 05:51:31;;;;;;;8.60;2.95;;;;;;;2.58;95.81;99518.53;5086126;28;20084;-70
2022/02/11 05:53:57;;;;;;;5.97;2.78;;;;;;;2.58;95.85;99531.53;5086085;28;20028;-70
2022/02/11 05:56:22;;;;;;;9.35;2.85;;;;;;;2.54;95.79;99547.88;5085937;28;20025;-70
2022/02/11 05:58:47;;;;;;;16.13;3.00;;;;;;;2.53;96.17;99548.72;5085998;28;20326;-70
2022/02/11 06:01:13;;;;;;;15.90;3.38;;;;;;;2.52;96.78;99553.84;5085980;28;20048;-70
2022/02/11 06:03:38;;;;;;;16.27;3.90;;;;;;;2.56;97.02;99561.78;5085896;28;20089;-70
2022/02/11 06:06:04;;;;;;;7.93;4.28;;;;;;;2.60;97.19;99563.66;5085837;28;20044;-70
2022/02/11 06:08:29;;;;;;;15.73;4.25;;;;;;;2.62;97.11;99561.94;5085804;28;20020;-70
2022/02/11 06:10:54;;;;;;;9.57;4.93;;;;;;;2.65;96.93;99569.81;5085776;28;20032;-70
2022/02/11 06:13:21;;;;;;;11.73;4.13;;;;;;;2.68;96.91;99577.72;5085695;28;20032;-70
2022/02/11 06:15:46;;;;;;;10.88;4.75;;;;;;;2.63;96.99;99578.44;5085756;28;20032;-70
2022/02/11 06:18:12;;;;;;;11.85;5.03;;;;;;;2.63;96.77;99587.13;5085737;28;20247;-70
2022/02/11 06:20:38;;;;;;;13.20;4.78;;;;;;;2.69;96.68;99589.84;5085554;28;20228;-70
2022/02/11 06:23:03;;;;;;;11.10;5.05;;;;;;;2.67;96.53;99586.34;5085474;28;20035;-70
2022/02/11 06:25:29;;;;;;;17.80;4.63;;;;;;;2.68;96.50;99592.41;5085338;28;20024;-70
2022/02/11 06:27:55;;;;;;;18.27;5.45;;;;;;;2.72;96.13;99599.47;5085388;28;20228;-70
2022/02/11 06:30:22;;;;;;;9.80;4.72;;;;;;;2.70;96.25;99611.53;5085202;28;20050;-70
2022/02/11 06:32:48;;;;;;;12.50;5.22;;;;;;;2.73;96.21;99619.44;5085354;28;20090;-70
2022/02/11 06:35:13;;;;;;;12.75;5.13;;;;;;;2.81;95.98;99621.38;5085243;28;20028;-70
2022/02/11 06:37:45;;;;;;;10.68;4.30;;;;;;;2.84;96.35;99637.06;5085088;28;20024;-70
2022/02/11 06:40:12;;;;;;;10.67;5.70;;;;;;;2.81;96.64;99646.53;5085475;28;20057;-70
2022/02/11 06:42:38;;;;;;;12.80;5.10;;;;;;;2.86;95.94;99650.09;5085080;28;20333;-70
2022/02/11 06:45:04;;;;;;;15.55;5.85;;;;;;;2.88;96.03;99659.69;5085040;28;20313;-70
2022/02/11 06:47:30;;;;;;;11.20;5.10;;;;;;;2.94;95.32;99665.06;5084986;28;20020;-70
2022/02/11 06:49:55;;;;;;;9.07;4.72;;;;;;;3.00;95.57;99665.22;5084902;28;20024;-70
2022/02/11 06:52:21;;;;;;;14.45;4.90;;;;;;;3.01;95.15;99661.78;5084627;28;20024;-70
2022/02/11 06:54:46;;;;;;;16.70;5.05;;;;;;;2.98;94.71;99668.66;5084861;28;20062;-70
2022/02/11 06:57:12;;;;;;;13.15;4.93;;;;;;;3.02;94.70;99671.38;5084733;28;20020;-70
2022/02/11 06:59:37;;;;;;;11.40;5.57;;;;;;;2.91;94.97;99667.59;5084691;28;20067;-70
2022/02/11 07:02:03;;;;;;;18.85;5.25;;;;;;;2.83;94.52;99663.91;5084946;28;20031;-70
2022/02/11 07:04:29;;;;;;;11.15;5.18;;;;;;;2.72;94.06;99672.25;5084668;28;20380;-70
2022/02/11 07:06:54;;;;;;;15.13;6.05;;;;;;;2.64;94.35;99674.63;5084599;28;20032;-70
2022/02/11 07:09:20;;;;;;;11.70;5.97;;;;;;;2.58;95.09;99679.66;5084594;28;20066;-70
2022/02/11 07:11:45;;;;;;;9.52;5.18;;;;;;;2.54;95.23;99683.00;5084631;28;20027;-70
2022/02/11 07:14:11;;;;;;;13.27;5.50;;;;;;;2.48;95.78;99688.03;5084606;28;20189;-70
2022/02/11 07:16:37;;;;;;;11.65;6.15;;;;;;;2.35;96.04;99680.72;5084380;28;20020;-70
2022/02/11 07:19:02;;;;;;;12.18;4.95;;;;;;;2.33;96.60;99692.78;5084479;28;20201;-70
2022/02/11 07:21:28;;;;;;;16.17;6.15;;;;;;;2.36;96.64;99692.84;5084360;28;20045;-70
2022/02/11 07:23:53;;;;;;;10.27;4.95;;;;;;;2.44;97.02;99691.38;5084301;28;20319;-70
2022/02/11 07:26:19;;;;;;;18.60;5.20;;;;;;;2.46;96.97;99692.28;5084301;28;20028;-70
2022/02/11 07:28:44;;;;;;;11.23;6.05;;;;;;;2.46;96.97;99694.88;5084330;28;20027;-70
2022/02/11 07:31:10;;;;;;;12.05;5.15;;;;;;;2.44;97.57;99706.09;5084071;28;20040;-70
2022/02/11 07:33:35;;;;;;;14.80;5.63;;;;;;;2.50;97.36;99706.25;5066351;28;20023;-70
2022/02/11 07:36:01;;;;;;;13.73;4.30;;;;;;;2.59;97.37;99712.59;5084210;28;20087;-70
2022/02/11 07:38:26;;;;;;;12.27;6.32;;;;;;;2.58;97.49;99716.03;5084139;28;20024;-70
2022/02/11 07:40:52;;;;;;;10.35;5.70;;;;;;;2.67;97.55;99723.22;5084053;28;20020;-70
2022/02/11 07:43:17;;;;;;;17.02;5.47;;;;;;;2.72;96.95;99725.09;5084129;28;20092;-70
2022/02/11 07:45:43;;;;;;;13.07;5.70;;;;;;;2.76;96.77;99737.38;5084309;28;20043;-70
2022/02/11 07:48:08;;;;;;;28.92;6.88;;;;;;;2.86;97.03;99744.59;5084021;28;20084;-70
2022/02/11 07:50:34;;;;;;;13.50;5.00;;;;;;;2.90;96.11;99749.03;5084029;28;20036;-70
2022/02/11 07:52:59;;;;;;;11.88;5.32;;;;;;;3.01;96.53;99750.19;5083996;28;20028;-70
2022/02/11 07:55:25;;;;;;;13.20;6.30;;;;;;;3.06;95.82;99759.03;5084231;28;20323;-70
2022/02/11 07:57:50;;;;;;;22.88;5.70;;;;;;;3.09;95.42;99758.22;5083868;28;20032;-70
2022/02/11 08:00:16;;;;;;;16.52;6.15;;;;;;;3.14;95.22;99767.03;5083934;28;20028;-70
2022/02/11 08:02:42;;;;;;;9.25;4.95;;;;;;;3.15;95.49;99782.69;5083834;28;20026;-70
2022/02/11 08:05:08;;;;;;;12.68;5.47;;;;;;;3.22;94.92;99792.44;5083179;28;20024;-70
2022/02/11 08:07:34;;;;;;;13.73;5.60;;;;;;;3.24;95.61;99801.19;5083850;28;20028;-70
2022/02/11 08:10:00;;;;;;;18.95;7.25;;;;;;;3.14;96.24;99804.34;5083840;28;20034;-70
2022/02/11 08:12:25;;;;;;;11.18;6.50;;;;;;;3.13;96.01;99812.97;5083769;28;20078;-70
2022/02/11 08:14:51;;;;;;;13.18;6.63;;;;;;;3.13;96.53;99823.38;5083807;28;20024;-70
2022/02/11 08:17:17;;;;;;;13.75;6.07;;;;;;;3.11;96.10;99822.47;5083749;28;20224;-70
2022/02/11 08:19:42;;;;;;;22.33;7.32;;;;;;;3.16;96.41;99823.47;5083740;28;20336;-70
2022/02/11 08:22:08;;;;;;;15.07;6.70;;;;;;;3.16;96.28;99823.47;5083667;28;20032;-70
2022/02/11 08:24:34;;;;;;;18.83;6.30;;;;;;;3.19;96.33;99828.75;5083533;28;20021;-70
2022/02/11 08:26:59;;;;;;;20.80;7.25;;;;;;;3.27;96.42;99832.47;5083637;28;20021;-70
2022/02/11 08:29:31;;;;;;;14.38;6.22;;;;;;;3.38;95.93;99840.56;5083703;28;20024;-70
2022/02/11 08:31:57;;;;;;;23.90;6.63;;;;;;;3.52;95.75;99850.53;5083506;28;20340;-70
2022/02/11 08:34:23;;;;;;;14.85;6.28;;;;;;;3.49;96.08;99845.25;5083584;28;20324;-70
2022/02/11 08:36:49;;;;;;;13.63;6.28;;;;;;;3.55;95.99;99845.38;5083514;28;20048;-70
2022/02/11 08:39:16;;;;;;;20.80;6.43;;;;;;;3.51;95.06;99847.91;5083559;28;20047;-70
2022/02/11 08:41:41;;;;;;;17.30;6.72;;;;;;;3.55;95.62;99861.00;5083542;28;20052;-70
2022/02/11 08:44:07;;;;;;;20.25;7.20;;;;;;;3.60;95.66;99859.44;5083483;28;20324;-70
2022/02/11 08:46:32;;;;;;;15.32;6.75;;;;;;;3.67;95.48;99861.34;5083693;28;20037;-70
2022/02/11 08:48:58;;;;;;;14.80;7.28;;;;;;;3.70;95.65;99861.44;5083458;28;20130;-70
2022/02/11 08:51:23;;;;;;;18.58;7.72;;;;;;;3.70;95.63;99871.84;5083499;28;20031;-70
2022/02/11 08:53:51;;;;;;;22.77;7.93;;;;;;;3.75;94.71;99875.47;5083459;28;20028;-70
2022/02/11 08:56:16;;;;;;;17.67;6.88;;;;;;;3.85;94.83;99877.47;5083215;28;20025;-70
2022/02/11 08:58:42;;;;;;;16.55;6.95;;;;;;;4.18;93.66;99888.78;5083337;28;20032;-70
2022/02/11 09:01:07;;;;;;;26.60;8.57;;;;;;;4.29;93.34;99871.69;5083365;28;20212;-70
2022/02/11 09:03:36;;;;;;;14.13;7.75;;;;;;;4.29;92.41;99882.13;5083359;28;20265;-70
2022/02/11 09:06:04;;;;;;;15.27;6.25;;;;;;;4.36;92.14;99873.63;5083326;28;20071;-70
2022/02/11 09:08:33;;;;;;;14.98;6.20;;;;;;;4.32;92.02;99877.00;5083222;28;20031;-70
2022/02/11 09:10:59;;;;;;;14.45;6.78;;;;;;;4.31;92.26;99880.41;5083218;28;20039;-70
2022/02/11 09:13:27;;;;;;;17.23;7.05;;;;;;;4.29;92.45;99881.22;5083232;28;20377;-70
2022/02/11 09:15:53;;;;;;;13.38;6.00;;;;;;;4.25;91.87;99880.25;5085119;28;20020;-70
2022/02/11 09:18:19;;;;;;;14.75;7.10;;;;;;;4.17;93.29;99887.03;5086703;28;20108;-70
2022/02/11 09:20:46;;;;;;;13.00;6.38;;;;;;;4.28;92.55;99888.16;5086785;28;20028;-70
2022/02/11 09:23:12;;;;;;;14.23;6.65;;;;;;;4.36;92.32;99891.84;5086697;28;20028;-70
2022/02/11 09:25:37;;;;;;;16.83;5.70;;;;;;;4.84;91.50;99888.66;5086568;28;20076;-70
2022/02/11 09:28:03;;;;;;;17.88;7.28;;;;;;;5.86;88.65;99896.13;5086591;28;20021;-70
2022/02/11 09:30:29;;;;;;;13.25;6.75;;;;;;;7.09;83.68;99898.22;5086394;28;20050;-70
2022/02/11 09:32:57;;;;;;;14.85;6.40;;;;;;;7.80;81.02;99897.44;5086588;28;20021;-70
2022/02/11 09:35:23;;;;;;;19.80;6.90;;;;;;;8.11;78.70;99904.78;5086680;28;20083;-70
2022/02/11 09:37:49;;;;;;;17.00;6.10;;;;;;;8.37;77.23;99895.47;5086333;28;20202;-70
2022/02/11 09:40:16;;;;;;;12.55;5.28;;;;;;;9.08;75.14;99906.50;5086367;28;20066;-70
2022/02/11 09:42:42;;;;;;;15.48;5.70;;;;;;;9.10;73.71;99907.41;5086312;28;20024;-70
2022/02/11 09:45:10;;;;;;;13.02;5.78;;;;;;;9.44;73.30;99900.59;5086266;28;20028;-70
2022/02/11 09:47:36;;;;;;;10.32;5.43;;;;;;;9.61;71.73;99904.19;5086231;28;20031;-70
2022/02/11 09:50:03;;;;;;;16.15;5.68;;;;;;;9.57;70.78;99907.69;5086185;28;20220;-70
2022/02/11 09:52:44;;;;;;;14.73;6.80;;;;;;;9.52;71.16;99919.94;5086084;28;20035;-70
2022/02/11 09:57:55;;;;;;;13.35;5.88;;;;;;;7.73;74.84;99916.56;5086002;28;20085;-70
2022/02/11 10:00:24;;;;;;;13.20;6.00;;;;;;;6.93;78.09;99922.41;5086024;28;20028;-70
2022/02/11 10:02:49;;;;;;;17.13;6.50;;;;;;;6.51;80.37;99932.16;5085898;28;20029;-70
2022/02/11 10:05:22;;;;;;;12.80;5.32;;;;;;;6.68;81.37;99930.75;5085894;28;20024;-70
2022/02/11 10:07:48;;;;;;;14.85;6.65;;;;;;;7.50;79.79;99931.09;5086056;28;20020;-70
2022/02/11 10:10:17;;;;;;;17.60;6.05;;;;;;;7.80;78.51;99947.22;5085779;28;20035;-70
2022/02/11 10:12:42;;;;;;;9.85;4.95;;;;;;;8.26;76.29;99959.19;5085744;28;20028;-70
2022/02/11 10:15:19;;;;;;;10.82;4.82;;;;;;;8.17;75.99;99967.75;5085708;28;20224;-70
2022/02/11 10:17:44;;;;;;;14.30;5.40;;;;;;;7.72;76.97;99976.81;5085554;28;20070;-70
2022/02/11 10:20:10;;;;;;;10.43;4.75;;;;;;;7.35;79.81;99985.91;5085608;28;20320;-70
2022/02/11 10:22:35;;;;;;;12.50;5.50;;;;;;;6.97;80.07;99994.91;5085508;28;20202;-70
2022/02/11 10:25:01;;;;;;;15.35;5.32;;;;;;;6.70;82.13;100006.66;5085430;28;20087;-70
2022/02/11 10:27:32;;;;;;;9.43;4.72;;;;;;;6.32;82.69;100005.91;5084819;28;20024;-70
2022/02/11 10:30:06;;;;;;;10.98;5.40;;;;;;;6.23;82.58;100008.34;5085139;28;20035;-70
2022/02/11 10:32:48;;;;;;;10.40;5.10;;;;;;;6.05;84.87;100018.47;5085345;28;20059;-70
2022/02/11 10:35:27;;;;;;;18.43;5.50;;;;;;;5.86;85.42;100013.69;5085560;28;20020;-70
2022/02/11 10:38:13;;;;;;;19.02;5.13;;;;;;;5.85;85.10;100014.53;5085435;28;20044;-70
2022/02/11 10:40:40;;;;;;;14.40;5.60;;;;;;;5.80;85.41;100008.31;5085157;28;20029;-70
2022/02/11 10:43:22;;;;;;;16.23;6.13;;;;;;;5.80;85.65;100016.16;5085114;28;20051;-70
2022/02/11 10:45:49;;;;;;;10.35;5.68;;;;;;;5.82;85.66;100019.72;5085281;28;20086;-70
2022/02/11 10:48:17;;;;;;;12.48;5.28;;;;;;;5.82;86.80;100017.09;5085039;28;20246;-70
2022/02/11 10:50:57;;;;;;;14.25;6.75;;;;;;;5.78;86.52;100013.50;5084945;28;20029;-70
2022/02/11 10:53:28;;;;;;;21.42;6.00;;;;;;;5.85;87.29;100015.41;5085055;28;20031;-70
2022/02/11 10:55:55;;;;;;;16.08;5.20;;;;;;;5.88;85.53;100014.59;5085179;28;20267;-70
2022/02/11 10:58:22;;;;;;;13.32;5.55;;;;;;;5.90;86.92;100023.34;5084756;28;20032;-70
2022/02/11 11:00:48;;;;;;;17.02;5.50;;;;;;;5.84;86.08;100023.22;5085023;28;20025;-70
2022/02/11 11:03:13;;;;;;;22.15;5.93;;;;;;;5.89;85.13;100029.44;5084694;28;20399;-70
2022/02/11 11:05:43;;;;;;;18.30;5.03;;;;;;;5.83;85.04;100029.31;5084670;28;20087;-70
2022/02/11 11:08:11;;;;;;;15.50;4.82;;;;;;;5.79;86.06;100035.28;5084659;28;20031;-70
2022/02/11 11:10:47;;;;;;;11.85;4.93;;;;;;;5.81;86.83;100034.50;5084805;28;20316;-70
2022/02/11 11:13:14;;;;;;;13.68;4.22;;;;;;;5.74;85.54;100026.47;5084633;28;20028;-70
2022/02/11 11:15:44;;;;;;;18.67;6.07;;;;;;;5.73;85.61;100029.94;5084524;28;20031;-70
2022/02/11 11:18:11;;;;;;;19.63;5.05;;;;;;;5.50;86.34;100036.34;5084388;28;20024;-70
2022/02/11 11:20:38;;;;;;;19.52;5.63;;;;;;;5.54;86.36;100032.97;5084391;28;20025;-70
2022/02/11 11:23:15;;;;;;;16.33;5.45;;;;;;;5.54;86.89;100043.44;5084400;28;20062;-70
2022/02/11 11:25:54;;;;;;;10.73;4.25;;;;;;;5.59;87.00;100044.38;5084083;28;20012;-70
2022/02/11 11:28:44;;;;;;;14.38;4.75;;;;;;;5.75;85.94;100033.44;5081911;28;20016;-70
2022/02/11 11:31:14;;;;;;;9.98;3.80;;;;;;;5.77;84.65;100034.38;5083078;28;20040;-70
2022/02/11 11:33:40;;;;;;;17.05;4.68;;;;;;;5.79;84.51;100037.91;5081808;28;20123;-70
2022/02/11 11:36:11;;;;;;;21.00;4.88;;;;;;;5.78;84.37;100044.84;5082423;28;20032;-70
2022/02/11 11:38:40;;;;;;;13.50;3.23;;;;;;;5.85;84.67;100038.03;5081824;28;20016;-70
2022/02/11 11:41:08;;;;;;;16.48;4.07;;;;;;;5.81;84.77;100033.56;5087686;28;20185;-70
2022/02/11 11:43:40;;;;;;;16.67;3.35;;;;;;;5.99;84.15;100040.13;5081853;28;20312;-70
2022/02/11 11:46:17;;;;;;;10.98;3.22;;;;;;;6.21;82.62;100036.22;5079968;28;20027;-70
2022/02/11 11:49:12;;;;;;;12.55;3.35;;;;;;;6.33;81.79;100031.25;5081854;28;20092;-70
2022/02/11 11:51:40;;;;;;;9.63;3.17;;;;;;;6.22;80.51;100027.50;5078700;28;20243;-70
2022/02/11 11:57:04;;;;;;;5.68;2.45;;;;;;;6.53;81.58;100029.88;5078464;28;20431;-70
2022/02/11 11:59:37;;;;;;;11.82;3.05;;;;;;;6.69;80.83;100031.91;5080729;28;20023;-70
2022/02/11 12:02:13;;;;;;;9.85;3.55;;;;;;;6.83;80.34;100030.41;5081843;28;20366;-70
2022/02/11 12:04:39;;;;;;;16.42;3.15;;;;;;;6.84;79.07;100026.97;5079255;28;20272;-70
2022/02/11 12:07:10;;;;;;;9.65;3.13;;;;;;;6.99;78.74;100021.97;5082947;28;20021;-70
2022/02/11 12:09:37;;;;;;;21.63;3.30;;;;;;;6.99;77.38;100029.81;5082534;28;20405;-70
2022/02/11 12:12:05;;;;;;;6.45;2.58;;;;;;;7.04;76.28;100020.31;5082872;28;20024;-70
2022/02/11 12:14:34;;;;;;;16.27;2.85;;;;;;;7.06;77.60;100017.72;5082201;28;20032;-70
2022/02/11 12:17:02;;;;;;;11.15;2.55;;;;;;;7.19;78.05;100025.81;5086949;28;20365;-70
2022/02/11 12:19:28;;;;;;;12.57;3.10;;;;;;;7.22;76.50;100015.41;5103000;28;20219;-70
2022/02/11 12:21:55;;;;;;;11.90;2.95;;;;;;;7.23;75.65;100006.66;5102566;28;20028;-70
2022/02/11 12:27:21;;;;;;;17.15;2.83;;;;;;;7.19;78.12;100009.22;5081728;28;20020;-70
2022/02/11 12:29:54;;;;;;;14.43;3.07;;;;;;;6.97;77.73;100002.75;5079051;28;20028;-70
2022/02/11 12:32:31;;;;;;;8.30;2.38;;;;;;;6.96;77.93;100000.13;5081230;28;20324;-70
2022/02/11 12:35:00;;;;;;;11.27;2.92;;;;;;;7.09;77.15;100005.56;5081053;28;20028;-70
2022/02/11 12:37:27;;;;;;;5.05;2.75;;;;;;;7.45;76.22;99993.03;5081264;28;21187;-70
2022/02/11 12:40:11;;;;;;;8.48;2.50;;;;;;;7.56;77.11;99999.31;5081452;28;20027;-70
2022/02/11 12:42:40;;;;;;;10.73;2.40;;;;;;;7.47;77.65;99991.31;5081669;28;20300;-70
2022/02/11 12:45:08;;;;;;;3.75;2.13;;;;;;;7.33;75.93;99998.09;5081546;28;20323;-70
2022/02/11 12:47:36;;;;;;;9.88;2.60;;;;;;;7.29;76.67;100006.78;5078205;28;20327;-70
2022/02/11 12:50:03;;;;;;;11.15;2.33;;;;;;;7.20;75.08;100001.38;5082403;28;20025;-70
2022/02/11 12:52:30;;;;;;;10.50;2.92;;;;;;;7.21;77.04;100003.13;5085429;28;20031;-70
2022/02/11 12:55:22;;;;;;;10.25;2.30;;;;;;;7.18;77.44;100007.47;5085198;28;20220;-70
2022/02/11 12:57:53;;;;;;;10.25;3.22;;;;;;;6.95;76.61;99999.22;5081889;28;20024;-70
2022/02/11 13:00:22;;;;;;;7.55;2.25;;;;;;;6.98;76.10;100003.63;5084836;28;20250;-70
2022/02/11 13:02:50;;;;;;;9.52;3.10;;;;;;;7.23;76.20;100005.78;5085037;28;20107;-70
2022/02/11 13:05:20;;;;;;;8.80;2.58;;;;;;;7.52;76.54;99992.25;5085038;28;20020;-70
2022/02/11 13:07:49;;;;;;;9.95;2.45;;;;;;;7.65;75.84;99995.91;5084799;28;20043;-70
2022/02/11 13:10:29;;;;;;;9.45;2.35;;;;;;;7.69;77.37;99993.38;5085495;28;20031;-70
2022/02/11 13:12:57;;;;;;;10.63;2.33;;;;;;;7.74;72.95;100002.19;5084246;28;20089;-70
2022/02/11 13:15:28;;;;;;;18.35;3.28;;;;;;;7.76;71.82;99995.25;5086156;28;20009;-70
2022/02/11 13:17:55;;;;;;;6.90;2.45;;;;;;;7.52;72.73;99992.25;5085631;28;20017;-70
2022/02/11 13:20:30;;;;;;;5.40;1.92;;;;;;;7.48;73.27;99997.44;5085425;28;20277;-70
2022/02/11 13:22:59;;;;;;;10.23;2.20;;;;;;;7.65;74.15;100007.28;5085916;28;20044;-70
2022/02/11 13:25:24;;;;;;;6.65;1.92;;;;;;;7.51;74.89;100007.97;5084903;28;20315;-69
2022/02/11 13:27:52;;;;;;;17.80;2.63;;;;;;;7.44;72.60;100011.34;5085431;28;20016;-69
2022/02/11 13:30:30;;;;;;;15.20;3.30;;;;;;;7.42;73.99;100018.31;5085540;28;20294;-69
2022/02/11 13:32:58;;;;;;;12.82;2.63;;;;;;;7.20;74.01;100017.09;5085468;28;20185;-69
2022/02/11 13:35:24;;;;;;;9.85;1.95;;;;;;;7.25;74.29;100020.69;5085392;28;20024;-68
2022/02/11 13:37:52;;;;;;;8.13;2.70;;;;;;;7.16;73.93;100024.88;5085360;28;20021;-69
2022/02/11 13:40:23;;;;;;;12.05;2.83;;;;;;;7.20;75.49;100027.56;5085268;28;20028;-68
2022/02/11 13:43:08;;;;;;;10.82;2.63;;;;;;;7.28;75.75;100022.47;5085253;28;20024;-68
2022/02/11 13:45:56;;;;;;;6.95;3.03;;;;;;;7.36;74.97;100029.56;5085032;28;20046;-68
2022/02/11 13:48:27;;;;;;;8.18;3.03;;;;;;;7.26;74.29;100022.44;5083475;28;20362;-68
2022/02/11 13:51:13;;;;;;;8.03;2.33;;;;;;;7.30;74.19;100032.09;5084979;28;20024;-68
2022/02/11 13:53:41;;;;;;;8.02;2.67;;;;;;;7.17;73.66;100026.63;5083208;28;20040;-68
2022/02/11 13:56:09;;;;;;;13.93;2.63;;;;;;;7.05;74.61;100027.31;5084958;28;20228;-68
2022/02/11 13:58:35;;;;;;;7.00;2.78;;;;;;;6.91;73.83;100023.59;5081240;28;20024;-68
2022/02/11 14:01:03;;;;;;;11.88;2.40;;;;;;;6.72;73.27;100016.28;5084575;28;20021;-68
2022/02/11 14:03:30;;;;;;;10.05;2.80;;;;;;;6.55;75.75;100023.81;5084196;28;20244;-68
2022/02/11 14:06:01;;;;;;;10.63;2.33;;;;;;;6.38;75.92;100026.97;5084804;28;20020;-68
2022/02/11 14:08:44;;;;;;;18.58;3.55;;;;;;;6.21;74.30;100016.16;5084666;28;20016;-68
2022/02/11 14:11:15;;;;;;;8.23;2.30;;;;;;;6.16;74.45;100022.16;5083018;28;20320;-68
2022/02/11 14:13:42;;;;;;;11.85;2.35;;;;;;;6.13;75.10;100032.53;5084672;28;20038;-68
2022/02/11 14:16:07;;;;;;;8.38;2.15;;;;;;;6.12;75.30;100031.69;5084543;28;20032;-68
2022/02/11 14:18:33;;;;;;;6.45;1.60;;;;;;;6.20;74.84;100034.44;5084611;28;20213;-68
2022/02/11 14:20:58;;;;;;;3.67;2.08;;;;;;;6.37;74.73;100038.28;5084475;28;20024;-68
2022/02/11 14:23:24;;;;;;;8.80;1.95;;;;;;;6.46;76.00;100034.09;5082190;28;20031;-68
2022/02/11 14:25:49;;;;;;;7.95;1.60;;;;;;;6.50;75.71;100035.03;5084416;28;20083;-68
2022/02/11 14:28:17;;;;;;;10.88;2.08;;;;;;;6.56;76.27;100024.69;5084727;28;20035;-68
2022/02/11 14:30:44;;;;;;;13.93;2.67;;;;;;;6.53;75.29;100030.75;5085255;28;20044;-68
2022/02/11 14:33:11;;;;;;;12.13;2.05;;;;;;;6.49;75.97;100028.06;5085340;28;20024;-68
2022/02/11 14:35:38;;;;;;;8.73;1.90;;;;;;;6.49;75.87;100028.91;5085322;28;20207;-68
2022/02/11 14:38:04;;;;;;;16.95;2.65;;;;;;;6.60;74.97;100035.25;5085229;28;20054;-68
2022/02/11 14:40:31;;;;;;;7.18;1.58;;;;;;;6.68;74.77;100030.16;5085282;28;20049;-68
2022/02/11 14:42:57;;;;;;;9.52;2.17;;;;;;;6.74;74.91;100030.25;5085195;28;20032;-68
2022/02/11 14:45:23;;;;;;;9.82;2.13;;;;;;;6.83;74.39;100029.56;5085064;28;20035;-68
2022/02/11 14:47:48;;;;;;;12.38;3.15;;;;;;;6.85;73.12;100033.94;5085081;28;20048;-68
2022/02/11 14:50:14;;;;;;;10.80;2.75;;;;;;;6.85;73.40;100027.81;5084710;28;20054;-68
2022/02/11 14:52:40;;;;;;;7.75;1.70;;;;;;;6.87;73.10;100036.59;5083742;28;20020;-68
2022/02/11 14:55:07;;;;;;;8.48;2.25;;;;;;;6.76;75.04;100028.53;5083849;28;20028;-68
2022/02/11 14:57:33;;;;;;;11.75;2.83;;;;;;;6.76;75.00;100030.28;5083621;28;20020;-68
2022/02/11 14:59:59;;;;;;;11.82;2.20;;;;;;;6.79;75.09;100039.06;5083733;28;20028;-68
2022/02/11 15:02:25;;;;;;;6.57;2.15;;;;;;;6.74;75.45;100039.84;5083851;28;20050;-68
2022/02/11 15:04:50;;;;;;;12.23;2.55;;;;;;;6.74;74.41;100038.09;5083712;28;20032;-68
2022/02/11 15:07:16;;;;;;;16.50;2.63;;;;;;;6.73;73.47;100038.97;5083971;28;20027;-69
2022/02/11 15:09:41;;;;;;;11.27;3.25;;;;;;;6.72;72.66;100037.22;5083761;28;20347;-69
2022/02/11 15:12:10;;;;;;;10.32;2.33;;;;;;;6.63;74.60;100039.66;5083570;28;20021;-68
2022/02/11 15:14:35;;;;;;;17.33;2.55;;;;;;;6.60;74.96;100044.81;5083117;28;20016;-69
2022/02/11 15:17:01;;;;;;;18.15;3.20;;;;;;;6.59;76.06;100045.69;5083669;28;20256;-70
2022/02/11 15:19:26;;;;;;;9.52;2.20;;;;;;;6.59;75.19;100051.78;5083398;28;20031;-70
2022/02/11 15:21:52;;;;;;;11.07;2.35;;;;;;;6.62;75.13;100040.50;5083545;28;20204;-70
2022/02/11 15:24:17;;;;;;;9.88;2.67;;;;;;;6.59;75.43;100045.69;5083126;28;20066;-70
2022/02/11 15:26:43;;;;;;;15.35;2.95;;;;;;;6.58;75.44;100042.19;5083420;28;20035;-70
2022/02/11 15:29:09;;;;;;;10.05;2.40;;;;;;;6.60;74.87;100047.44;5083246;28;20028;-70
2022/02/11 15:31:36;;;;;;;8.50;2.65;;;;;;;6.55;75.81;100047.34;5082521;28;20082;-70
2022/02/11 15:34:03;;;;;;;9.30;1.75;;;;;;;6.47;76.58;100035.00;5081931;28;20017;-70
2022/02/11 15:36:29;;;;;;;3.75;2.00;;;;;;;6.47;75.90;100037.59;5083328;28;20024;-70
2022/02/11 15:38:54;;;;;;;11.00;2.45;;;;;;;6.36;76.57;100044.38;5083504;28;20066;-70
2022/02/11 15:41:20;;;;;;;7.32;2.33;;;;;;;6.39;75.96;100052.25;5083146;28;20055;-70
2022/02/11 15:43:47;;;;;;;4.75;1.80;;;;;;;6.36;76.80;100057.44;5082913;28;20017;-70